Terminal Aerodrome Forecast
Issued by NWS Memphis, TN

Home | Current Version | Previous Version | Text Only | Print | Product List | Glossary On
Versions: 1 2 3 4 5 6 7 8 9 10 11 12 13 14 15 16 17
474
FTUS44 KMEG 281720
TAFJBR
TAF
KJBR 281720Z 2818/2918 19009KT P6SM SCT030
     FM290100 18004KT P6SM SCT250
     FM291000 25005KT 4SM BR BKN040=

USA.gov is the U.S. government's official web portal to all federal, state and local government web resources and services.